CPX716 Details

Departure: General Omar Torrijos International Airport (MPTO)
Arrival: Miami International Airport (KMIA)
Route: TASNO UL780 URSUS FLIPR6


Current Weather Information
MPTO 252300Z 04012KT 9999 SCT020 30/21 Q1008 NOSIG
KMIA 252353Z 12005KT 10SM FEW025 24/19 A3003 RMK AO2 SLP168 60042 T02390194 10272 20228 55000